Time;durP1;ratioP1;P1;durP2;ratioP2;P2;SDS_P1;SDS_P2;PMS_P1;PMS_P2;Temp;Humidity;BMP_temperature;BMP_pressure;BME280_temperature;BME280_humidity;BME280_pressure;Samples;Min_cycle;Max_cycle;Signal;HPM_P1;HPM_P2
2024/03/08 00:01:21;;;;;;;32.83;18.48;;;4.90;99.90;;;;;;5010606;28;20061;-77
2024/03/08 00:03:47;;;;;;;37.05;17.70;;;3.70;99.90;;;;;;4997121;28;20045;-77
2024/03/08 00:06:12;;;;;;;36.47;18.25;;;4.80;99.90;;;;;;4995620;28;20042;-78
2024/03/08 00:08:51;;;;;;;37.10;18.50;;;4.10;99.90;;;;;;4996310;28;20037;-77
2024/03/08 00:11:16;;;;;;;36.38;17.48;;;3.70;99.90;;;;;;4978515;28;20041;-77
2024/03/08 00:13:42;;;;;;;38.33;18.48;;;5.00;99.90;;;;;;5017835;28;20041;-77
2024/03/08 00:16:09;;;;;;;35.70;18.20;;;5.10;99.90;;;;;;5018033;28;20048;-77
2024/03/08 00:18:35;;;;;;;35.38;18.83;;;4.70;99.90;;;;;;4996787;28;20042;-77
2024/03/08 00:21:00;;;;;;;33.42;17.80;;;3.70;99.90;;;;;;4984451;28;20476;-77
2024/03/08 00:23:28;;;;;;;33.95;18.13;;;4.70;99.90;;;;;;5018490;28;20057;-77
2024/03/08 00:25:55;;;;;;;34.38;18.05;;;5.10;99.90;;;;;;5003669;28;20126;-77
2024/03/08 00:28:21;;;;;;;31.38;17.75;;;5.00;99.90;;;;;;4986243;28;20563;-77
2024/03/08 00:30:47;;;;;;;32.45;17.75;;;4.90;99.90;;;;;;4998487;28;20073;-77
2024/03/08 00:33:12;;;;;;;38.90;18.58;;;3.70;99.90;;;;;;4982992;28;20447;-76
2024/03/08 00:35:38;;;;;;;35.22;18.48;;;3.60;99.90;;;;;;5000419;28;20069;-77
2024/03/08 00:38:05;;;;;;;36.00;17.80;;;3.70;99.90;;;;;;4980019;28;20037;-77
2024/03/08 00:40:30;;;;;;;34.88;18.85;;;4.70;99.90;;;;;;5010956;28;20040;-77
2024/03/08 00:42:56;;;;;;;32.05;17.83;;;4.10;99.90;;;;;;4979618;28;20495;-77
2024/03/08 00:45:23;;;;;;;35.88;18.70;;;3.70;99.90;;;;;;4982560;28;20101;-77
2024/03/08 00:47:49;;;;;;;34.60;17.15;;;3.60;99.90;;;;;;5014862;28;20042;-77
2024/03/08 00:50:18;;;;;;;37.63;19.00;;;4.90;99.90;;;;;;5013694;28;20401;-77
2024/03/08 00:52:43;;;;;;;32.05;17.45;;;4.70;99.90;;;;;;4996145;28;20042;-77
2024/03/08 00:55:11;;;;;;;34.00;18.40;;;4.70;99.90;;;;;;4993136;28;20386;-77
2024/03/08 00:57:38;;;;;;;37.70;18.05;;;4.60;99.90;;;;;;4981808;28;20037;-77
2024/03/08 01:00:09;;;;;;;31.88;17.15;;;3.50;99.90;;;;;;4998952;28;20041;-77
2024/03/08 01:02:35;;;;;;;35.22;17.73;;;3.60;99.90;;;;;;4980970;28;20451;-77
2024/03/08 01:05:07;;;;;;;32.42;18.45;;;3.60;99.90;;;;;;4989676;28;20117;-77
2024/03/08 01:07:34;;;;;;;33.00;17.15;;;3.60;99.90;;;;;;4984355;28;20455;-77
2024/03/08 01:10:04;;;;;;;31.33;17.58;;;4.30;99.90;;;;;;4987840;28;20076;-79
2024/03/08 01:12:29;;;;;;;35.47;17.95;;;3.50;99.90;;;;;;4974369;28;20488;-76
2024/03/08 01:14:57;;;;;;;35.47;17.50;;;3.50;99.90;;;;;;5007701;28;20042;-76
2024/03/08 01:17:23;;;;;;;32.60;18.27;;;3.70;99.90;;;;;;4981578;28;20038;-77
2024/03/08 01:19:49;;;;;;;34.03;18.17;;;3.40;99.90;;;;;;4978599;28;20117;-77
2024/03/08 01:22:15;;;;;;;35.28;18.10;;;4.90;99.90;;;;;;4977176;28;20125;-77
2024/03/08 01:24:40;;;;;;;34.05;18.50;;;4.70;99.90;;;;;;5015272;28;20033;-77
2024/03/08 01:27:07;;;;;;;35.15;17.83;;;4.60;99.90;;;;;;4995917;28;20045;-77
2024/03/08 01:29:33;;;;;;;38.58;18.73;;;4.30;99.90;;;;;;4979267;28;20038;-77
2024/03/08 01:32:01;;;;;;;34.78;18.50;;;3.00;99.90;;;;;;5012876;28;20103;-76
2024/03/08 01:34:28;;;;;;;35.67;18.52;;;4.80;99.90;;;;;;4995808;28;20049;-76
2024/03/08 01:36:56;;;;;;;32.42;17.98;;;4.40;99.90;;;;;;5018467;28;20049;-77
2024/03/08 01:39:22;;;;;;;36.13;18.88;;;4.40;99.90;;;;;;4985552;28;20042;-77
2024/03/08 01:41:50;;;;;;;33.47;18.42;;;4.60;99.90;;;;;;5019030;28;20041;-77
2024/03/08 01:44:17;;;;;;;35.92;18.98;;;3.30;99.90;;;;;;5004927;28;20042;-77
2024/03/08 01:46:47;;;;;;;35.65;17.67;;;3.20;99.90;;;;;;4979570;28;20038;-77
2024/03/08 01:49:14;;;;;;;36.67;18.77;;;4.10;99.90;;;;;;4979641;28;20038;-77
2024/03/08 01:51:41;;;;;;;37.65;18.45;;;3.40;99.90;;;;;;4978371;28;20048;-77
2024/03/08 01:54:09;;;;;;;34.28;18.80;;;3.50;99.90;;;;;;4976349;28;20069;-77
2024/03/08 01:56:37;;;;;;;34.33;18.30;;;3.30;99.90;;;;;;5007541;28;20112;-77
2024/03/08 01:59:03;;;;;;;36.08;18.05;;;4.70;99.90;;;;;;5015187;28;20037;-77
2024/03/08 02:01:29;;;;;;;32.65;18.02;;;3.30;99.90;;;;;;4995636;28;20038;-77
2024/03/08 02:03:55;;;;;;;31.90;18.17;;;4.30;99.90;;;;;;4997755;28;20046;-77
2024/03/08 02:06:23;;;;;;;37.55;19.30;;;3.80;99.90;;;;;;4979291;28;20125;-77
2024/03/08 02:08:51;;;;;;;36.38;19.33;;;3.20;99.90;;;;;;4982798;28;20041;-76
2024/03/08 02:11:18;;;;;;;35.70;19.30;;;4.70;99.90;;;;;;4976394;28;20532;-77
2024/03/08 02:13:44;;;;;;;36.63;19.00;;;3.20;99.90;;;;;;5015561;28;20097;-77
2024/03/08 02:16:10;;;;;;;30.77;18.15;;;3.80;99.90;;;;;;4989587;28;20073;-77
2024/03/08 02:18:40;;;;;;;35.53;19.20;;;3.30;99.90;;;;;;4993005;28;20053;-77
2024/03/08 02:21:08;;;;;;;36.15;19.67;;;3.30;99.90;;;;;;4992567;28;20038;-77
2024/03/08 02:23:34;;;;;;;36.30;18.85;;;3.10;99.90;;;;;;4984990;28;20480;-77
2024/03/08 02:26:00;;;;;;;38.67;19.58;;;3.60;99.90;;;;;;4978888;28;20045;-77
2024/03/08 02:28:29;;;;;;;38.67;20.00;;;3.20;99.90;;;;;;4985532;28;20058;-77
2024/03/08 02:30:57;;;;;;;38.17;18.90;;;2.20;99.90;;;;;;5016543;28;20046;-78
2024/03/08 02:33:23;;;;;;;34.75;18.42;;;3.30;99.90;;;;;;4970911;28;20045;-77
2024/03/08 02:35:50;;;;;;;34.08;18.75;;;3.80;99.90;;;;;;5019903;28;20069;-77
2024/03/08 02:38:20;;;;;;;33.55;19.35;;;3.10;99.90;;;;;;5014880;28;20033;-76
2024/03/08 02:40:48;;;;;;;36.03;18.95;;;3.20;99.90;;;;;;5001194;28;20049;-77
2024/03/08 02:43:15;;;;;;;32.95;18.20;;;2.70;99.90;;;;;;4991573;28;20050;-76
2024/03/08 02:45:45;;;;;;;36.75;19.80;;;4.10;99.90;;;;;;4993955;28;20034;-76
2024/03/08 02:48:11;;;;;;;37.92;19.77;;;3.00;99.90;;;;;;4979945;28;20120;-77
2024/03/08 02:50:39;;;;;;;35.53;19.23;;;3.00;99.90;;;;;;4972136;28;20038;-77
2024/03/08 02:53:06;;;;;;;36.40;19.05;;;3.90;99.90;;;;;;4978166;28;20044;-77
2024/03/08 02:55:33;;;;;;;36.33;19.00;;;3.80;99.90;;;;;;5010367;28;20045;-77
2024/03/08 02:57:59;;;;;;;35.13;19.35;;;4.50;99.90;;;;;;4991745;28;20073;-77
2024/03/08 03:00:25;;;;;;;35.78;19.00;;;3.00;99.90;;;;;;4993579;28;20389;-77
2024/03/08 03:03:01;;;;;;;36.55;18.60;;;3.10;99.90;;;;;;4978457;28;20034;-77
2024/03/08 03:05:26;;;;;;;36.20;18.27;;;3.00;99.90;;;;;;5007438;28;20556;-77
2024/03/08 03:07:52;;;;;;;36.25;19.40;;;3.20;99.90;;;;;;4978217;28;20121;-77
2024/03/08 03:10:19;;;;;;;38.28;19.60;;;1.90;99.90;;;;;;5009407;28;20093;-77
2024/03/08 03:12:48;;;;;;;35.22;19.25;;;3.00;99.90;;;;;;4983564;28;20041;-77
2024/03/08 03:15:14;;;;;;;40.17;19.50;;;4.60;99.90;;;;;;5012597;28;20477;-77
2024/03/08 03:17:41;;;;;;;38.60;19.92;;;4.40;99.90;;;;;;4995230;28;20124;-77
2024/03/08 03:20:12;;;;;;;34.28;19.23;;;3.00;99.90;;;;;;4993019;28;20060;-77
2024/03/08 03:22:38;;;;;;;37.63;20.08;;;3.10;99.90;;;;;;5008892;28;20409;-77
2024/03/08 03:25:06;;;;;;;33.67;19.10;;;3.80;99.90;;;;;;4991494;28;20042;-77
2024/03/08 03:27:34;;;;;;;39.67;20.15;;;3.10;99.90;;;;;;5007782;28;20034;-77
2024/03/08 03:30:19;;;;;;;39.40;20.08;;;4.10;99.90;;;;;;4982511;28;20479;-77
2024/03/08 03:32:46;;;;;;;38.10;19.38;;;3.00;99.90;;;;;;4989000;28;20033;-77
2024/03/08 03:35:16;;;;;;;35.35;19.33;;;3.80;99.90;;;;;;4981862;28;20042;-77
2024/03/08 03:37:45;;;;;;;34.97;19.15;;;3.00;99.90;;;;;;5005869;28;20029;-77
2024/03/08 03:40:15;;;;;;;37.63;19.50;;;2.90;99.90;;;;;;4997581;28;20523;-76
2024/03/08 03:42:41;;;;;;;38.78;19.05;;;3.00;99.90;;;;;;4978178;28;20037;-77
2024/03/08 03:45:06;;;;;;;36.40;20.45;;;2.40;99.90;;;;;;4978331;28;20542;-77
2024/03/08 03:47:32;;;;;;;39.22;20.08;;;3.00;99.90;;;;;;4997804;28;20081;-77
2024/03/08 03:50:01;;;;;;;40.00;20.02;;;4.20;99.90;;;;;;4971910;28;20119;-77
2024/03/08 03:52:27;;;;;;;37.47;20.70;;;3.40;99.90;;;;;;4989714;28;20420;-77
2024/03/08 03:54:53;;;;;;;35.25;19.27;;;2.90;99.90;;;;;;5008258;28;20042;-77
2024/03/08 03:57:20;;;;;;;33.85;18.75;;;2.90;99.90;;;;;;5014557;28;20557;-77
2024/03/08 03:59:49;;;;;;;34.20;19.02;;;2.90;99.90;;;;;;5013938;28;20077;-77
2024/03/08 04:02:14;;;;;;;37.25;19.98;;;4.40;99.90;;;;;;5003437;28;20415;-77
2024/03/08 04:04:40;;;;;;;43.55;19.88;;;3.40;99.90;;;;;;5014881;28;20485;-77
2024/03/08 04:07:09;;;;;;;35.17;18.92;;;2.80;99.90;;;;;;5010112;28;20476;-76
2024/03/08 04:09:35;;;;;;;34.90;18.95;;;2.90;99.90;;;;;;4980893;28;20034;-77
2024/03/08 04:12:01;;;;;;;41.58;19.42;;;2.90;99.90;;;;;;4979501;28;20405;-76
2024/03/08 04:14:27;;;;;;;36.85;20.77;;;2.80;99.90;;;;;;4998959;28;20069;-77
2024/03/08 04:16:52;;;;;;;34.22;19.05;;;3.80;99.90;;;;;;5011940;28;20042;-77
2024/03/08 04:19:19;;;;;;;35.80;20.15;;;4.20;99.90;;;;;;5013645;28;20049;-77
2024/03/08 04:21:45;;;;;;;41.10;19.92;;;3.60;99.90;;;;;;4980347;28;20412;-77
2024/03/08 04:24:14;;;;;;;38.83;19.88;;;2.80;99.90;;;;;;5012118;28;20500;-77
2024/03/08 04:26:43;;;;;;;35.45;20.15;;;4.10;99.90;;;;;;4999166;28;20062;-77
2024/03/08 04:29:09;;;;;;;36.15;20.58;;;2.70;99.90;;;;;;4982341;28;20045;-77
2024/03/08 04:31:35;;;;;;;32.55;18.88;;;4.10;99.90;;;;;;4994495;28;20038;-77
2024/03/08 04:34:00;;;;;;;37.30;20.45;;;3.20;99.90;;;;;;5015885;28;20042;-77
2024/03/08 04:36:26;;;;;;;41.53;20.55;;;4.30;99.90;;;;;;5013475;28;20152;-76
2024/03/08 04:38:52;;;;;;;36.33;20.13;;;4.20;99.90;;;;;;4995610;28;20109;-76
2024/03/08 04:41:18;;;;;;;38.22;19.50;;;4.00;99.90;;;;;;4983971;28;20041;-76
2024/03/08 04:43:47;;;;;;;34.95;20.02;;;3.60;99.90;;;;;;4982133;28;20038;-77
2024/03/08 04:46:13;;;;;;;41.75;20.77;;;2.70;99.90;;;;;;5014529;28;20126;-77
2024/03/08 04:48:41;;;;;;;37.15;19.45;;;4.00;99.90;;;;;;4979196;28;20400;-76
2024/03/08 04:51:07;;;;;;;39.47;21.00;;;2.80;99.90;;;;;;4997111;28;20050;-76
2024/03/08 04:53:34;;;;;;;38.22;20.65;;;3.90;99.90;;;;;;4993614;28;20038;-77
2024/03/08 04:56:00;;;;;;;38.72;19.88;;;2.60;99.90;;;;;;4982296;28;20046;-77
2024/03/08 04:58:35;;;;;;;36.45;20.40;;;4.20;99.90;;;;;;4994152;28;20046;-77
2024/03/08 05:01:01;;;;;;;40.70;20.80;;;2.60;99.90;;;;;;4979715;28;20052;-76
2024/03/08 05:03:30;;;;;;;38.15;19.55;;;2.60;99.90;;;;;;4994184;28;20040;-77
2024/03/08 05:06:00;;;;;;;38.72;20.45;;;3.00;99.90;;;;;;5000904;28;20404;-77
2024/03/08 05:08:25;;;;;;;41.95;20.17;;;4.00;99.90;;;;;;5006384;28;20033;-77
2024/03/08 05:11:00;;;;;;;36.50;20.40;;;2.40;99.90;;;;;;5008856;28;20042;-76
2024/03/08 05:13:26;;;;;;;33.28;19.33;;;2.00;99.90;;;;;;4976948;28;20037;-77
2024/03/08 05:15:52;;;;;;;34.72;20.02;;;3.80;99.90;;;;;;5010117;28;20099;-77
2024/03/08 05:18:18;;;;;;;37.42;19.73;;;4.00;99.90;;;;;;5012961;28;20444;-77
2024/03/08 05:20:43;;;;;;;39.13;21.67;;;3.90;99.90;;;;;;4993959;28;20180;-76
2024/03/08 05:23:09;;;;;;;37.05;20.17;;;2.50;99.90;;;;;;5013703;28;20041;-76
2024/03/08 05:25:36;;;;;;;36.70;19.85;;;2.60;99.90;;;;;;4977027;28;20034;-76
2024/03/08 05:28:01;;;;;;;35.78;20.60;;;2.60;99.90;;;;;;4995739;28;20415;-76
2024/03/08 05:30:27;;;;;;;43.65;21.75;;;3.60;99.90;;;;;;4990614;28;20121;-76
2024/03/08 05:32:52;;;;;;;36.67;20.95;;;3.10;99.90;;;;;;4998587;28;20500;-77
2024/03/08 05:35:18;;;;;;;37.80;20.27;;;3.80;99.90;;;;;;4980572;28;20404;-77
2024/03/08 05:37:44;;;;;;;35.95;20.50;;;2.30;99.90;;;;;;5011553;28;20042;-77
2024/03/08 05:40:10;;;;;;;36.67;20.08;;;3.70;99.90;;;;;;5005997;28;20516;-77
2024/03/08 05:42:36;;;;;;;35.97;19.90;;;2.50;99.90;;;;;;5009591;28;20463;-77
2024/03/08 05:45:03;;;;;;;38.25;20.42;;;3.40;99.90;;;;;;4975031;28;20149;-77
2024/03/08 05:47:29;;;;;;;40.58;21.58;;;2.50;99.90;;;;;;4979490;28;20041;-76
2024/03/08 05:49:55;;;;;;;37.80;20.40;;;3.80;99.90;;;;;;4995766;28;20125;-77
2024/03/08 05:52:21;;;;;;;40.05;20.35;;;1.80;99.90;;;;;;4984514;28;20081;-76
2024/03/08 05:54:47;;;;;;;40.65;21.05;;;1.80;99.90;;;;;;4966953;28;20456;-76
2024/03/08 05:57:14;;;;;;;39.33;21.90;;;2.50;99.90;;;;;;5019868;28;20489;-77
2024/03/08 05:59:40;;;;;;;41.78;22.20;;;2.40;99.90;;;;;;5019938;28;20080;-77
2024/03/08 06:02:05;;;;;;;39.35;21.25;;;3.50;99.90;;;;;;5012884;28;20069;-77
2024/03/08 06:04:31;;;;;;;41.22;21.27;;;3.70;99.90;;;;;;4995806;28;20061;-78
2024/03/08 06:06:58;;;;;;;40.88;22.52;;;3.60;99.90;;;;;;4995682;28;20045;-77
2024/03/08 06:09:27;;;;;;;40.88;21.65;;;3.00;99.90;;;;;;4995239;28;20212;-77
2024/03/08 06:11:53;;;;;;;40.50;21.70;;;2.40;99.90;;;;;;4981235;28;20620;-77
2024/03/08 06:14:20;;;;;;;39.47;22.30;;;3.80;99.90;;;;;;5001224;28;20116;-77
2024/03/08 06:16:46;;;;;;;40.40;21.52;;;2.50;99.90;;;;;;4980306;28;20037;-77
2024/03/08 06:19:13;;;;;;;37.75;21.27;;;1.40;99.90;;;;;;4994067;28;20099;-77
2024/03/08 06:21:41;;;;;;;43.50;22.85;;;3.20;99.90;;;;;;4986437;28;20111;-77
2024/03/08 06:24:07;;;;;;;40.53;20.58;;;3.90;99.90;;;;;;4979841;28;20120;-76
2024/03/08 06:26:34;;;;;;;39.63;20.92;;;2.40;99.90;;;;;;4998663;28;20459;-76
2024/03/08 06:29:00;;;;;;;38.85;21.17;;;3.60;99.90;;;;;;5017130;28;20034;-77
2024/03/08 06:31:26;;;;;;;39.45;21.33;;;3.50;99.90;;;;;;4975432;28;20133;-76
2024/03/08 06:33:54;;;;;;;40.40;20.60;;;2.20;99.90;;;;;;5011026;28;20121;-78
2024/03/08 06:36:21;;;;;;;39.28;21.15;;;3.90;99.90;;;;;;4995641;28;20535;-77
2024/03/08 06:38:49;;;;;;;39.63;21.33;;;2.50;99.90;;;;;;4977455;28;20124;-76
2024/03/08 06:41:16;;;;;;;37.38;21.02;;;2.30;99.90;;;;;;4987633;28;20101;-76
2024/03/08 06:43:46;;;;;;;40.05;21.42;;;2.30;99.90;;;;;;4994389;28;20444;-76
2024/03/08 06:46:12;;;;;;;39.95;21.70;;;3.10;99.90;;;;;;4986784;28;20101;-77
2024/03/08 06:48:41;;;;;;;40.35;20.60;;;3.80;99.90;;;;;;4970585;28;20036;-77
2024/03/08 06:51:07;;;;;;;40.33;21.08;;;2.50;99.90;;;;;;4993467;28;20060;-77
2024/03/08 06:53:37;;;;;;;40.25;20.77;;;2.40;99.90;;;;;;4992403;28;20034;-76
2024/03/08 06:56:03;;;;;;;38.03;20.90;;;2.40;99.90;;;;;;4985222;28;20046;-77
2024/03/08 06:58:28;;;;;;;40.60;20.15;;;1.70;99.90;;;;;;5011461;28;20128;-77
2024/03/08 07:01:03;;;;;;;38.22;20.67;;;2.50;99.90;;;;;;4985115;28;20409;-77
2024/03/08 07:03:30;;;;;;;38.13;21.13;;;1.60;99.90;;;;;;4988542;28;20072;-78
2024/03/08 07:05:58;;;;;;;41.20;21.45;;;3.30;99.90;;;;;;4992923;28;20061;-77
2024/03/08 07:08:26;;;;;;;38.92;20.83;;;3.90;99.90;;;;;;5011560;28;20249;-78
2024/03/08 07:10:54;;;;;;;38.50;20.42;;;2.40;99.90;;;;;;4994055;28;20103;-78
2024/03/08 07:13:25;;;;;;;41.67;21.85;;;2.40;99.90;;;;;;5021318;28;20160;-77
2024/03/08 07:15:52;;;;;;;41.70;21.17;;;4.00;99.90;;;;;;4973537;28;20579;-78
2024/03/08 07:18:17;;;;;;;40.38;21.98;;;2.40;99.90;;;;;;4996668;28;20045;-75
2024/03/08 07:20:43;;;;;;;43.55;22.23;;;4.10;99.90;;;;;;5010315;28;20046;-75
2024/03/08 07:23:10;;;;;;;34.67;20.65;;;3.60;99.90;;;;;;4988114;28;20050;-75
2024/03/08 07:25:38;;;;;;;40.20;21.20;;;2.10;99.90;;;;;;4993733;28;20073;-76
2024/03/08 07:28:06;;;;;;;39.47;21.30;;;4.00;99.90;;;;;;4976855;28;20049;-76
2024/03/08 07:33:12;;;;;;;40.25;21.42;;;3.20;99.90;;;;;;5003471;28;20129;-75
2024/03/08 07:35:39;;;;;;;40.55;22.55;;;3.20;99.90;;;;;;5000255;28;20038;-76
2024/03/08 07:38:05;;;;;;;41.10;22.40;;;3.90;99.90;;;;;;4987904;28;20077;-77
2024/03/08 07:40:34;;;;;;;42.10;22.25;;;2.60;99.90;;;;;;4991988;28;20053;-76
2024/03/08 07:43:00;;;;;;;38.95;21.70;;;3.70;99.90;;;;;;4990314;28;20045;-76
2024/03/08 07:45:26;;;;;;;43.17;22.02;;;4.00;99.90;;;;;;4997300;28;20056;-78
2024/03/08 07:47:53;;;;;;;37.05;20.92;;;3.20;99.90;;;;;;4979759;28;20474;-76
2024/03/08 07:50:19;;;;;;;41.05;21.35;;;4.00;99.90;;;;;;4978674;28;20133;-76
2024/03/08 07:52:45;;;;;;;39.05;21.73;;;4.00;99.90;;;;;;4977010;28;20049;-76
2024/03/08 07:55:10;;;;;;;40.83;21.25;;;4.00;99.90;;;;;;4993387;28;20564;-76
2024/03/08 07:57:39;;;;;;;37.42;20.85;;;3.80;99.90;;;;;;4990268;28;20515;-75
2024/03/08 08:00:09;;;;;;;40.30;22.20;;;3.60;99.90;;;;;;4991826;28;20118;-76
2024/03/08 08:02:37;;;;;;;40.85;22.52;;;2.70;99.90;;;;;;4993331;28;20038;-75
2024/03/08 08:05:04;;;;;;;40.85;21.50;;;2.70;99.90;;;;;;4991488;28;20045;-75
2024/03/08 08:07:30;;;;;;;41.85;23.83;;;2.80;99.90;;;;;;4992827;28;20045;-76
2024/03/08 08:09:56;;;;;;;41.17;22.45;;;2.80;99.90;;;;;;5008833;28;20034;-74
2024/03/08 08:12:22;;;;;;;43.92;22.52;;;2.80;99.90;;;;;;4992044;28;20034;-75
2024/03/08 08:14:47;;;;;;;43.47;23.58;;;2.80;99.90;;;;;;4974710;28;20041;-76
2024/03/08 08:17:13;;;;;;;37.70;20.83;;;2.90;99.90;;;;;;5013587;28;20026;-76
2024/03/08 08:19:41;;;;;;;43.50;22.15;;;3.10;99.90;;;;;;4992932;28;20030;-76
2024/03/08 08:22:08;;;;;;;39.88;21.55;;;2.90;99.90;;;;;;4974795;28;20054;-76
2024/03/08 08:24:36;;;;;;;41.03;21.65;;;4.40;99.90;;;;;;5007719;28;20176;-76
2024/03/08 08:27:02;;;;;;;43.05;22.98;;;4.00;99.90;;;;;;4974008;28;20048;-74
2024/03/08 08:29:28;;;;;;;39.42;21.67;;;3.00;99.90;;;;;;4991531;28;20081;-75
2024/03/08 08:31:55;;;;;;;42.42;22.42;;;3.80;99.90;;;;;;4985114;28;20254;-76
2024/03/08 08:34:23;;;;;;;44.40;22.38;;;3.10;99.90;;;;;;4955483;28;20396;-76
2024/03/08 08:36:49;;;;;;;37.90;21.77;;;4.20;99.90;;;;;;4970376;28;20037;-76
2024/03/08 08:39:16;;;;;;;41.90;22.13;;;4.20;99.90;;;;;;4984016;28;20050;-76
2024/03/08 08:41:42;;;;;;;39.10;21.98;;;4.30;99.90;;;;;;4976431;28;20064;-77
2024/03/08 08:44:10;;;;;;;41.10;23.10;;;4.30;99.90;;;;;;4995496;28;20030;-77
2024/03/08 08:46:37;;;;;;;39.28;22.40;;;4.70;99.90;;;;;;4994602;28;20042;-77
2024/03/08 08:49:04;;;;;;;41.03;21.35;;;4.80;99.90;;;;;;4990669;28;20031;-76
2024/03/08 08:51:33;;;;;;;42.55;23.60;;;3.20;99.90;;;;;;5011358;28;20044;-77
2024/03/08 08:53:59;;;;;;;41.58;22.38;;;4.90;99.90;;;;;;4976284;28;20092;-76
2024/03/08 08:56:25;;;;;;;41.55;23.05;;;4.50;99.90;;;;;;5012635;28;20124;-76
2024/03/08 08:58:54;;;;;;;41.58;23.05;;;3.90;99.90;;;;;;4995418;28;20045;-76
2024/03/08 09:01:20;;;;;;;41.97;23.23;;;3.40;99.90;;;;;;5013191;28;20081;-76
2024/03/08 09:03:46;;;;;;;39.95;22.17;;;3.40;99.90;;;;;;5014502;28;20045;-77
2024/03/08 09:06:13;;;;;;;41.28;23.35;;;4.80;99.90;;;;;;4978613;28;20035;-77
2024/03/08 09:08:43;;;;;;;42.30;22.05;;;3.50;99.90;;;;;;4993635;28;20121;-78
2024/03/08 09:11:10;;;;;;;43.90;23.73;;;4.50;99.90;;;;;;4994722;28;20052;-77
2024/03/08 09:13:36;;;;;;;41.20;22.75;;;5.00;99.90;;;;;;5016404;28;20040;-75
2024/03/08 09:16:05;;;;;;;45.65;24.08;;;5.00;99.90;;;;;;5012025;28;20049;-77
2024/03/08 09:18:32;;;;;;;43.30;23.50;;;3.10;99.90;;;;;;5015509;28;20037;-77
2024/03/08 09:20:59;;;;;;;42.95;23.58;;;3.60;99.90;;;;;;5010690;28;20042;-75
2024/03/08 09:23:30;;;;;;;47.30;24.52;;;4.30;99.90;;;;;;5012934;28;20034;-75
2024/03/08 09:25:57;;;;;;;43.10;24.02;;;3.70;99.90;;;;;;4996037;28;20499;-78
2024/03/08 09:28:24;;;;;;;45.50;23.65;;;3.80;99.90;;;;;;4990055;28;20504;-77
2024/03/08 09:30:50;;;;;;;42.95;23.08;;;5.00;99.90;;;;;;4995438;28;20508;-78
2024/03/08 09:33:19;;;;;;;43.00;23.80;;;5.10;99.90;;;;;;4984854;28;20080;-78
2024/03/08 09:35:48;;;;;;;44.20;23.90;;;5.00;99.90;;;;;;4980628;28;20132;-78
2024/03/08 09:38:14;;;;;;;44.47;23.80;;;3.90;99.90;;;;;;4993069;28;20501;-75
2024/03/08 09:40:44;;;;;;;41.58;22.65;;;3.90;99.90;;;;;;4980664;28;20034;-78
2024/03/08 09:43:13;;;;;;;43.03;24.98;;;4.00;99.90;;;;;;4998768;28;20065;-77
2024/03/08 09:45:42;;;;;;;43.53;23.98;;;4.00;99.90;;;;;;4997960;28;20445;-78
2024/03/08 09:48:26;;;;;;;43.65;24.40;;;4.10;99.90;;;;;;4982676;28;20042;-77
2024/03/08 09:50:55;;;;;;;43.13;24.35;;;4.10;99.90;;;;;;4985038;28;20058;-78
2024/03/08 09:53:22;;;;;;;40.33;23.92;;;5.30;99.90;;;;;;4978882;28;20109;-77
2024/03/08 09:55:49;;;;;;;44.08;24.67;;;5.20;99.90;;;;;;4987913;28;20040;-77
2024/03/08 09:58:17;;;;;;;42.97;25.15;;;5.30;99.90;;;;;;4995055;28;20452;-78
2024/03/08 10:00:43;;;;;;;46.42;25.88;;;4.30;99.90;;;;;;4996808;28;20038;-77
2024/03/08 10:03:10;;;;;;;42.85;23.20;;;5.90;99.90;;;;;;5018512;28;20045;-78
2024/03/08 10:05:36;;;;;;;42.67;23.95;;;4.40;99.90;;;;;;4995519;28;20512;-77
2024/03/08 10:08:02;;;;;;;43.08;24.05;;;5.80;99.90;;;;;;4979032;28;20077;-77
2024/03/08 10:10:28;;;;;;;44.92;25.27;;;4.50;99.90;;;;;;5014917;28;20030;-77
2024/03/08 10:12:55;;;;;;;45.15;24.27;;;5.50;99.90;;;;;;5000523;28;20079;-77
2024/03/08 10:15:21;;;;;;;45.13;24.55;;;5.80;99.90;;;;;;4996478;28;20038;-77
2024/03/08 10:17:46;;;;;;;45.75;23.80;;;4.70;99.90;;;;;;4990617;28;20042;-77
2024/03/08 10:20:18;;;;;;;45.22;24.90;;;6.00;99.90;;;;;;4979908;28;20129;-77
2024/03/08 10:22:48;;;;;;;45.47;24.65;;;5.00;99.90;;;;;;4996297;28;20049;-77
2024/03/08 10:25:14;;;;;;;43.97;23.60;;;5.20;99.90;;;;;;4983083;28;20037;-77
2024/03/08 10:27:41;;;;;;;43.75;24.25;;;6.70;99.90;;;;;;5007840;28;20034;-77
2024/03/08 10:30:12;;;;;;;39.70;24.55;;;6.30;99.90;;;;;;4983061;28;20053;-77
2024/03/08 10:32:39;;;;;;;38.92;24.27;;;5.80;99.90;;;;;;4981826;28;20069;-77
2024/03/08 10:35:04;;;;;;;39.45;24.50;;;6.00;99.90;;;;;;4986481;28;20045;-77
2024/03/08 10:37:33;;;;;;;43.67;25.25;;;6.20;99.90;;;;;;4980239;28;20465;-77
2024/03/08 10:40:15;;;;;;;42.15;24.67;;;6.80;99.90;;;;;;4980581;28;20038;-77
2024/03/08 10:42:51;;;;;;;38.35;24.08;;;6.60;99.90;;;;;;4982062;28;20041;-77
2024/03/08 10:45:25;;;;;;;40.53;24.75;;;7.60;99.90;;;;;;4998577;28;20073;-77
2024/03/08 10:48:12;;;;;;;40.08;24.80;;;7.00;99.90;;;;;;5014690;28;20096;-78
2024/03/08 10:50:38;;;;;;;43.53;24.63;;;7.30;99.90;;;;;;5009485;28;20044;-78
2024/03/08 10:53:10;;;;;;;42.40;25.98;;;8.10;99.90;;;;;;5019319;28;20325;-78
2024/03/08 10:55:39;;;;;;;37.50;23.83;;;7.60;99.90;;;;;;5007982;28;20037;-78
2024/03/08 10:58:10;;;;;;;41.00;25.23;;;8.40;99.90;;;;;;4984527;28;20052;-78
2024/03/08 11:00:37;;;;;;;38.50;24.70;;;7.90;99.90;;;;;;5013297;28;20485;-78
2024/03/08 11:03:04;;;;;;;39.88;25.02;;;8.40;99.90;;;;;;5015733;28;20088;-78
2024/03/08 11:05:38;;;;;;;44.00;26.42;;;8.10;99.90;;;;;;5014483;28;20045;-78
2024/03/08 11:08:24;;;;;;;37.58;25.15;;;8.40;99.90;;;;;;4980394;28;20042;-78
2024/03/08 11:10:51;;;;;;;38.08;24.10;;;9.00;99.90;;;;;;4983910;28;20052;-77
2024/03/08 11:13:36;;;;;;;38.40;24.70;;;8.60;99.90;;;;;;4975389;28;20038;-77
2024/03/08 11:16:12;;;;;;;35.45;23.95;;;8.70;99.90;;;;;;4976549;28;20081;-76
2024/03/08 11:18:41;;;;;;;39.08;23.70;;;8.80;99.90;;;;;;4998077;28;20030;-78
2024/03/08 11:21:14;;;;;;;34.97;23.17;;;8.70;99.90;;;;;;4985570;28;20042;-78
2024/03/08 11:23:42;;;;;;;33.65;23.17;;;8.80;99.90;;;;;;4989922;28;20104;-78
2024/03/08 11:26:23;;;;;;;39.20;24.33;;;8.90;99.90;;;;;;5000532;28;20074;-79
2024/03/08 11:28:51;;;;;;;33.55;23.25;;;8.90;99.90;;;;;;4983463;28;20034;-79
2024/03/08 11:31:29;;;;;;;35.08;24.25;;;9.10;99.90;;;;;;4996108;28;20038;-77
2024/03/08 11:33:57;;;;;;;35.28;23.42;;;9.00;99.90;;;;;;4979117;28;20093;-78
2024/03/08 11:36:24;;;;;;;34.85;23.27;;;9.50;99.90;;;;;;4989994;28;20045;-78
2024/03/08 11:38:55;;;;;;;34.80;24.48;;;9.20;99.90;;;;;;5003754;28;20038;-77
2024/03/08 11:41:23;;;;;;;35.92;24.80;;;9.40;99.90;;;;;;5010449;28;20042;-79
2024/03/08 11:44:05;;;;;;;35.47;24.17;;;9.40;99.90;;;;;;4977017;28;20057;-78
2024/03/08 11:46:31;;;;;;;36.50;24.53;;;9.50;99.90;;;;;;5008429;28;20066;-78
2024/03/08 11:48:57;;;;;;;33.35;24.25;;;9.60;99.90;;;;;;5003885;28;20414;-78
2024/03/08 11:51:30;;;;;;;31.42;22.55;;;9.70;99.90;;;;;;4983288;28;20516;-79
2024/03/08 11:53:56;;;;;;;31.85;22.80;;;9.70;99.90;;;;;;4984151;28;20042;-79
2024/03/08 11:56:21;;;;;;;32.42;22.92;;;9.70;99.90;;;;;;5022704;28;20151;-79
2024/03/08 11:58:58;;;;;;;34.55;23.17;;;9.80;99.90;;;;;;4999853;28;20102;-78
2024/03/08 12:01:24;;;;;;;32.85;22.27;;;9.90;99.90;;;;;;5012239;28;20046;-78
2024/03/08 12:03:58;;;;;;;33.38;22.67;;;10.00;99.90;;;;;;4984212;28;20038;-78
2024/03/08 12:06:25;;;;;;;33.78;22.30;;;10.00;99.90;;;;;;4995361;28;20060;-78
2024/03/08 12:08:55;;;;;;;36.40;23.50;;;10.00;99.90;;;;;;4998118;28;20037;-78
2024/03/08 12:11:25;;;;;;;33.85;22.38;;;10.00;99.90;;;;;;5011790;28;20037;-78
2024/03/08 12:13:51;;;;;;;33.30;22.50;;;10.00;99.90;;;;;;4984087;28;20040;-78
2024/03/08 12:16:24;;;;;;;32.58;22.38;;;10.00;99.90;;;;;;4992468;28;20041;-79
2024/03/08 12:18:52;;;;;;;30.65;21.98;;;10.10;99.90;;;;;;4985667;28;20042;-79
2024/03/08 12:21:20;;;;;;;31.98;22.65;;;10.20;99.90;;;;;;5005622;28;20056;-79
2024/03/08 12:23:49;;;;;;;34.28;24.48;;;10.20;99.90;;;;;;4980863;28;20034;-79
2024/03/08 12:26:17;;;;;;;34.08;23.77;;;10.20;99.90;;;;;;5020736;28;20045;-79
2024/03/08 12:28:45;;;;;;;32.63;24.20;;;10.20;99.90;;;;;;5000348;28;20165;-79
2024/03/08 12:31:12;;;;;;;29.88;22.63;;;10.20;99.90;;;;;;5001886;28;20050;-77
2024/03/08 12:33:51;;;;;;;36.13;22.65;;;10.30;99.90;;;;;;4997812;28;20033;-77
2024/03/08 12:36:20;;;;;;;31.98;22.13;;;10.30;99.90;;;;;;4995499;28;20038;-77
2024/03/08 12:38:50;;;;;;;35.38;22.02;;;10.60;99.90;;;;;;5001782;28;20050;-75
2024/03/08 12:41:19;;;;;;;30.23;21.45;;;10.40;99.90;;;;;;5010363;28;20451;-77